CA-0061 weather

CLOSED Bristol Field Airport
Argentia, Newfoundland and Labrador, Canada

Public forecast

Using degrees Celsius for public forecast. Weather courtesy of forecast.io.

METAR (pilot weather report)

Closest report is St. John's International Airport, 53.6 nm (99.2 km) ENE. Retrieved 2019/07/19 00:00 UTC (40 minutes ago):

CYYT 190000Z 25012KT 15SM SCT025 15/10 A2966 RMK SC3 SLP048 DENSITY ALT 900FT

TAF (pilot weather forecast)

Forecast is more than 12 hours old.

Closest forecast is St. John's International Airport, 53.6 nm (99.2 km) ENE. Retrieved 2019/07/18 00:39 UTC (1 day ago):

TAF CYYT 182338Z 1900/1924 30010KT P6SM FEW030 TEMPO 1900/1904 BKN030 BECMG 1904/1906 27015KT FM191200 27015G25KT P6SM FEW040 BECMG 1922/1924 26010KT RMK NXT FCST BY 190600Z